sensor_id;sensor_type;location;lat;lon;timestamp;P1;durP1;ratioP1;P2;durP2;ratioP2
40953;SDS011;26686;50.130;8.710;2022-10-31T00:00:31;13.38;;;10.13;;
40953;SDS011;26686;50.130;8.710;2022-10-31T00:05:32;12.00;;;9.60;;
40953;SDS011;26686;50.130;8.710;2022-10-31T00:10:36;14.25;;;9.43;;
40953;SDS011;26686;50.130;8.710;2022-10-31T00:15:39;13.25;;;9.52;;
40953;SDS011;26686;50.130;8.710;2022-10-31T00:20:41;10.98;;;8.93;;
40953;SDS011;26686;50.130;8.710;2022-10-31T00:25:42;10.57;;;9.43;;
40953;SDS011;26686;50.130;8.710;2022-10-31T00:30:43;13.73;;;9.93;;
40953;SDS011;26686;50.130;8.710;2022-10-31T00:35:51;11.93;;;10.70;;
40953;SDS011;26686;50.130;8.710;2022-10-31T00:40:52;12.27;;;9.68;;
40953;SDS011;26686;50.130;8.710;2022-10-31T00:45:54;13.43;;;9.80;;
40953;SDS011;26686;50.130;8.710;2022-10-31T00:50:55;10.68;;;9.43;;
40953;SDS011;26686;50.130;8.710;2022-10-31T00:55:57;12.15;;;9.55;;
40953;SDS011;26686;50.130;8.710;2022-10-31T01:00:58;11.45;;;8.50;;
40953;SDS011;26686;50.130;8.710;2022-10-31T01:06:01;12.60;;;8.60;;
40953;SDS011;26686;50.130;8.710;2022-10-31T01:11:04;9.95;;;8.57;;
40953;SDS011;26686;50.130;8.710;2022-10-31T01:16:10;14.25;;;10.15;;
40953;SDS011;26686;50.130;8.710;2022-10-31T01:21:14;14.20;;;9.13;;
40953;SDS011;26686;50.130;8.710;2022-10-31T01:31:24;12.02;;;10.13;;
40953;SDS011;26686;50.130;8.710;2022-10-31T01:41:32;12.80;;;8.75;;
40953;SDS011;26686;50.130;8.710;2022-10-31T01:46:37;10.40;;;8.88;;
40953;SDS011;26686;50.130;8.710;2022-10-31T01:51:46;11.68;;;9.10;;
40953;SDS011;26686;50.130;8.710;2022-10-31T01:56:52;11.55;;;8.98;;
40953;SDS011;26686;50.130;8.710;2022-10-31T02:06:59;9.75;;;8.50;;
40953;SDS011;26686;50.130;8.710;2022-10-31T02:12:04;10.23;;;8.40;;
40953;SDS011;26686;50.130;8.710;2022-10-31T02:17:07;11.35;;;8.25;;
40953;SDS011;26686;50.130;8.710;2022-10-31T02:48:57;11.30;;;7.80;;
40953;SDS011;26686;50.130;8.710;2022-10-31T02:54:05;15.50;;;8.32;;
40953;SDS011;26686;50.130;8.710;2022-10-31T02:59:06;13.77;;;7.60;;
40953;SDS011;26686;50.130;8.710;2022-10-31T03:04:29;8.50;;;6.70;;
40953;SDS011;26686;50.130;8.710;2022-10-31T03:19:55;13.90;;;9.90;;
40953;SDS011;26686;50.130;8.710;2022-10-31T03:25:02;13.23;;;11.98;;
40953;SDS011;26686;50.130;8.710;2022-10-31T03:30:05;13.18;;;11.85;;
40953;SDS011;26686;50.130;8.710;2022-10-31T03:35:08;15.70;;;12.35;;
40953;SDS011;26686;50.130;8.710;2022-10-31T03:40:12;9.75;;;8.55;;
40953;SDS011;26686;50.130;8.710;2022-10-31T03:45:21;11.30;;;7.90;;
40953;SDS011;26686;50.130;8.710;2022-10-31T03:50:28;9.05;;;7.07;;
40953;SDS011;26686;50.130;8.710;2022-10-31T03:55:41;10.38;;;7.53;;
40953;SDS011;26686;50.130;8.710;2022-10-31T04:00:47;9.10;;;6.93;;
40953;SDS011;26686;50.130;8.710;2022-10-31T04:05:53;7.95;;;7.13;;
40953;SDS011;26686;50.130;8.710;2022-10-31T04:10:58;11.65;;;8.82;;
40953;SDS011;26686;50.130;8.710;2022-10-31T04:16:01;15.83;;;14.10;;
40953;SDS011;26686;50.130;8.710;2022-10-31T04:21:04;20.92;;;18.88;;
40953;SDS011;26686;50.130;8.710;2022-10-31T04:26:08;12.80;;;11.25;;
40953;SDS011;26686;50.130;8.710;2022-10-31T04:31:12;9.75;;;7.75;;
40953;SDS011;26686;50.130;8.710;2022-10-31T04:36:15;12.85;;;10.93;;
40953;SDS011;26686;50.130;8.710;2022-10-31T04:41:16;12.05;;;11.02;;
40953;SDS011;26686;50.130;8.710;2022-10-31T04:46:17;11.52;;;10.43;;
40953;SDS011;26686;50.130;8.710;2022-10-31T04:51:18;12.88;;;9.25;;
40953;SDS011;26686;50.130;8.710;2022-10-31T04:56:20;9.93;;;8.25;;
40953;SDS011;26686;50.130;8.710;2022-10-31T05:01:21;10.35;;;8.60;;
40953;SDS011;26686;50.130;8.710;2022-10-31T05:06:23;8.70;;;7.80;;
40953;SDS011;26686;50.130;8.710;2022-10-31T05:11:24;9.60;;;6.40;;
40953;SDS011;26686;50.130;8.710;2022-10-31T05:16:25;11.63;;;6.93;;
40953;SDS011;26686;50.130;8.710;2022-10-31T05:21:27;12.52;;;6.68;;
40953;SDS011;26686;50.130;8.710;2022-10-31T05:26:28;10.18;;;7.00;;
40953;SDS011;26686;50.130;8.710;2022-10-31T05:31:29;10.82;;;6.45;;
40953;SDS011;26686;50.130;8.710;2022-10-31T05:36:30;8.88;;;6.28;;
40953;SDS011;26686;50.130;8.710;2022-10-31T05:41:32;8.85;;;5.80;;
40953;SDS011;26686;50.130;8.710;2022-10-31T05:46:33;10.02;;;6.35;;
40953;SDS011;26686;50.130;8.710;2022-10-31T05:51:39;8.45;;;6.53;;
40953;SDS011;26686;50.130;8.710;2022-10-31T05:56:41;10.50;;;7.55;;
40953;SDS011;26686;50.130;8.710;2022-10-31T06:01:42;10.38;;;9.15;;
40953;SDS011;26686;50.130;8.710;2022-10-31T06:06:43;13.80;;;11.52;;
40953;SDS011;26686;50.130;8.710;2022-10-31T06:11:45;13.15;;;11.85;;
40953;SDS011;26686;50.130;8.710;2022-10-31T06:16:46;11.80;;;9.45;;
40953;SDS011;26686;50.130;8.710;2022-10-31T06:21:47;9.35;;;8.40;;
40953;SDS011;26686;50.130;8.710;2022-10-31T06:26:48;8.05;;;6.50;;
40953;SDS011;26686;50.130;8.710;2022-10-31T06:31:53;8.88;;;6.35;;
40953;SDS011;26686;50.130;8.710;2022-10-31T06:36:55;8.25;;;6.03;;
40953;SDS011;26686;50.130;8.710;2022-10-31T06:41:57;8.25;;;6.15;;
40953;SDS011;26686;50.130;8.710;2022-10-31T06:46:58;8.40;;;6.07;;
40953;SDS011;26686;50.130;8.710;2022-10-31T06:51:59;8.15;;;5.95;;
40953;SDS011;26686;50.130;8.710;2022-10-31T06:57:01;7.85;;;6.47;;
40953;SDS011;26686;50.130;8.710;2022-10-31T07:02:02;11.70;;;7.60;;
40953;SDS011;26686;50.130;8.710;2022-10-31T07:07:03;9.80;;;7.40;;
40953;SDS011;26686;50.130;8.710;2022-10-31T07:12:05;15.95;;;7.18;;
40953;SDS011;26686;50.130;8.710;2022-10-31T07:17:06;11.38;;;7.10;;
40953;SDS011;26686;50.130;8.710;2022-10-31T07:22:07;7.97;;;6.68;;
40953;SDS011;26686;50.130;8.710;2022-10-31T07:27:09;12.45;;;8.30;;
40953;SDS011;26686;50.130;8.710;2022-10-31T07:32:10;10.07;;;7.97;;
40953;SDS011;26686;50.130;8.710;2022-10-31T07:37:11;11.73;;;10.52;;
40953;SDS011;26686;50.130;8.710;2022-10-31T07:42:13;10.32;;;7.90;;
40953;SDS011;26686;50.130;8.710;2022-10-31T07:47:14;12.43;;;8.23;;
40953;SDS011;26686;50.130;8.710;2022-10-31T07:52:15;12.75;;;8.52;;
40953;SDS011;26686;50.130;8.710;2022-10-31T07:57:16;9.82;;;8.82;;
40953;SDS011;26686;50.130;8.710;2022-10-31T08:02:25;17.63;;;10.27;;
40953;SDS011;26686;50.130;8.710;2022-10-31T08:07:27;16.50;;;8.60;;
40953;SDS011;26686;50.130;8.710;2022-10-31T08:12:29;13.27;;;8.32;;
40953;SDS011;26686;50.130;8.710;2022-10-31T08:17:34;11.93;;;8.30;;
40953;SDS011;26686;50.130;8.710;2022-10-31T08:22:36;13.50;;;9.80;;
40953;SDS011;26686;50.130;8.710;2022-10-31T08:27:47;14.63;;;9.13;;
40953;SDS011;26686;50.130;8.710;2022-10-31T08:33:04;12.77;;;9.20;;
40953;SDS011;26686;50.130;8.710;2022-10-31T08:38:08;11.18;;;9.38;;
40953;SDS011;26686;50.130;8.710;2022-10-31T08:43:14;10.75;;;8.63;;
40953;SDS011;26686;50.130;8.710;2022-10-31T08:48:17;9.35;;;8.05;;
40953;SDS011;26686;50.130;8.710;2022-10-31T08:53:18;10.82;;;9.07;;
40953;SDS011;26686;50.130;8.710;2022-10-31T08:58:20;9.98;;;8.90;;
40953;SDS011;26686;50.130;8.710;2022-10-31T09:03:23;10.57;;;9.50;;
40953;SDS011;26686;50.130;8.710;2022-10-31T09:08:25;9.80;;;8.80;;
40953;SDS011;26686;50.130;8.710;2022-10-31T09:13:27;10.02;;;9.00;;
40953;SDS011;26686;50.130;8.710;2022-10-31T09:18:28;11.43;;;9.75;;
40953;SDS011;26686;50.130;8.710;2022-10-31T09:23:30;9.77;;;8.88;;
40953;SDS011;26686;50.130;8.710;2022-10-31T09:28:31;12.40;;;9.65;;
40953;SDS011;26686;50.130;8.710;2022-10-31T09:33:33;15.75;;;9.98;;
40953;SDS011;26686;50.130;8.710;2022-10-31T09:38:34;15.13;;;10.00;;
40953;SDS011;26686;50.130;8.710;2022-10-31T10:00:25;9.82;;;8.35;;
40953;SDS011;26686;50.130;8.710;2022-10-31T10:10:53;10.80;;;8.40;;
40953;SDS011;26686;50.130;8.710;2022-10-31T10:16:11;13.13;;;8.38;;
40953;SDS011;26686;50.130;8.710;2022-10-31T10:21:21;9.35;;;8.32;;
40953;SDS011;26686;50.130;8.710;2022-10-31T10:26:36;11.48;;;8.63;;
40953;SDS011;26686;50.130;8.710;2022-10-31T10:31:40;10.85;;;9.00;;
40953;SDS011;26686;50.130;8.710;2022-10-31T10:41:48;10.25;;;8.63;;
40953;SDS011;26686;50.130;8.710;2022-10-31T10:47:09;12.25;;;9.18;;
40953;SDS011;26686;50.130;8.710;2022-10-31T11:02:55;11.00;;;9.02;;
40953;SDS011;26686;50.130;8.710;2022-10-31T11:07:57;17.23;;;10.80;;
40953;SDS011;26686;50.130;8.710;2022-10-31T11:13:00;11.68;;;9.45;;
40953;SDS011;26686;50.130;8.710;2022-10-31T11:18:12;14.77;;;10.73;;
40953;SDS011;26686;50.130;8.710;2022-10-31T11:23:22;13.75;;;9.82;;
40953;SDS011;26686;50.130;8.710;2022-10-31T11:28:26;12.52;;;9.73;;
40953;SDS011;26686;50.130;8.710;2022-10-31T11:38:41;10.90;;;8.57;;
40953;SDS011;26686;50.130;8.710;2022-10-31T11:43:54;10.50;;;8.38;;
40953;SDS011;26686;50.130;8.710;2022-10-31T11:48:59;11.60;;;8.85;;
40953;SDS011;26686;50.130;8.710;2022-10-31T11:54:01;11.10;;;7.60;;
40953;SDS011;26686;50.130;8.710;2022-10-31T11:59:05;10.88;;;7.97;;
40953;SDS011;26686;50.130;8.710;2022-10-31T12:04:39;8.48;;;7.32;;
40953;SDS011;26686;50.130;8.710;2022-10-31T12:09:45;10.43;;;7.90;;
40953;SDS011;26686;50.130;8.710;2022-10-31T12:26:13;8.85;;;6.82;;
40953;SDS011;26686;50.130;8.710;2022-10-31T12:31:43;13.30;;;7.70;;
40953;SDS011;26686;50.130;8.710;2022-10-31T12:36:59;10.73;;;6.57;;
40953;SDS011;26686;50.130;8.710;2022-10-31T12:58:26;7.63;;;5.55;;
40953;SDS011;26686;50.130;8.710;2022-10-31T13:03:44;11.93;;;6.55;;
40953;SDS011;26686;50.130;8.710;2022-10-31T13:08:59;11.40;;;5.93;;
40953;SDS011;26686;50.130;8.710;2022-10-31T13:14:07;9.60;;;5.28;;
40953;SDS011;26686;50.130;8.710;2022-10-31T13:19:25;10.73;;;6.05;;
40953;SDS011;26686;50.130;8.710;2022-10-31T13:24:41;10.20;;;6.00;;
40953;SDS011;26686;50.130;8.710;2022-10-31T13:29:52;8.48;;;5.80;;
40953;SDS011;26686;50.130;8.710;2022-10-31T13:35:01;7.05;;;6.35;;
40953;SDS011;26686;50.130;8.710;2022-10-31T13:45:24;8.68;;;5.60;;
40953;SDS011;26686;50.130;8.710;2022-10-31T13:50:29;8.02;;;5.40;;
40953;SDS011;26686;50.130;8.710;2022-10-31T13:55:39;11.55;;;6.05;;
40953;SDS011;26686;50.130;8.710;2022-10-31T14:00:43;9.15;;;5.70;;
40953;SDS011;26686;50.130;8.710;2022-10-31T14:05:44;8.93;;;5.78;;
40953;SDS011;26686;50.130;8.710;2022-10-31T14:10:54;8.68;;;5.78;;
40953;SDS011;26686;50.130;8.710;2022-10-31T14:15:58;8.38;;;5.40;;
40953;SDS011;26686;50.130;8.710;2022-10-31T14:31:31;8.40;;;5.43;;
40953;SDS011;26686;50.130;8.710;2022-10-31T14:41:58;7.97;;;5.47;;
40953;SDS011;26686;50.130;8.710;2022-10-31T14:47:17;9.38;;;5.28;;
40953;SDS011;26686;50.130;8.710;2022-10-31T14:52:34;9.50;;;5.25;;
40953;SDS011;26686;50.130;8.710;2022-10-31T14:57:38;7.78;;;4.75;;
40953;SDS011;26686;50.130;8.710;2022-10-31T15:08:01;7.55;;;5.63;;
40953;SDS011;26686;50.130;8.710;2022-10-31T15:13:09;7.88;;;5.70;;
40953;SDS011;26686;50.130;8.710;2022-10-31T15:18:21;10.82;;;5.80;;
40953;SDS011;26686;50.130;8.710;2022-10-31T15:23:26;6.43;;;5.40;;
40953;SDS011;26686;50.130;8.710;2022-10-31T15:28:29;9.13;;;5.88;;
40953;SDS011;26686;50.130;8.710;2022-10-31T15:33:39;10.38;;;6.20;;
40953;SDS011;26686;50.130;8.710;2022-10-31T15:38:48;10.38;;;5.78;;
40953;SDS011;26686;50.130;8.710;2022-10-31T15:43:50;8.70;;;5.83;;
40953;SDS011;26686;50.130;8.710;2022-10-31T15:48:52;9.15;;;6.88;;
40953;SDS011;26686;50.130;8.710;2022-10-31T15:53:54;8.90;;;6.57;;
40953;SDS011;26686;50.130;8.710;2022-10-31T15:58:57;8.82;;;6.40;;
40953;SDS011;26686;50.130;8.710;2022-10-31T16:04:04;10.93;;;7.35;;
40953;SDS011;26686;50.130;8.710;2022-10-31T16:09:21;13.38;;;7.05;;
40953;SDS011;26686;50.130;8.710;2022-10-31T16:14:25;9.02;;;6.70;;
40953;SDS011;26686;50.130;8.710;2022-10-31T16:19:35;9.45;;;7.45;;
40953;SDS011;26686;50.130;8.710;2022-10-31T16:24:46;10.50;;;8.38;;
40953;SDS011;26686;50.130;8.710;2022-10-31T16:29:52;13.23;;;7.95;;
40953;SDS011;26686;50.130;8.710;2022-10-31T16:35:01;14.55;;;8.82;;
40953;SDS011;26686;50.130;8.710;2022-10-31T16:40:18;12.02;;;8.48;;
40953;SDS011;26686;50.130;8.710;2022-10-31T16:45:23;11.00;;;7.85;;
40953;SDS011;26686;50.130;8.710;2022-10-31T16:50:26;16.00;;;7.78;;
40953;SDS011;26686;50.130;8.710;2022-10-31T16:55:28;12.25;;;8.75;;
40953;SDS011;26686;50.130;8.710;2022-10-31T17:00:29;12.00;;;7.28;;
40953;SDS011;26686;50.130;8.710;2022-10-31T17:05:31;9.48;;;7.10;;
40953;SDS011;26686;50.130;8.710;2022-10-31T17:10:33;11.38;;;8.70;;
40953;SDS011;26686;50.130;8.710;2022-10-31T17:15:40;12.00;;;8.30;;
40953;SDS011;26686;50.130;8.710;2022-10-31T17:20:44;12.00;;;9.80;;
40953;SDS011;26686;50.130;8.710;2022-10-31T17:25:46;10.93;;;8.68;;
40953;SDS011;26686;50.130;8.710;2022-10-31T17:30:47;10.23;;;8.77;;
40953;SDS011;26686;50.130;8.710;2022-10-31T17:35:49;13.15;;;9.43;;
40953;SDS011;26686;50.130;8.710;2022-10-31T17:40:50;14.27;;;10.65;;
40953;SDS011;26686;50.130;8.710;2022-10-31T17:45:51;12.95;;;9.60;;
40953;SDS011;26686;50.130;8.710;2022-10-31T17:50:53;13.75;;;9.88;;
40953;SDS011;26686;50.130;8.710;2022-10-31T17:55:58;11.15;;;9.88;;
40953;SDS011;26686;50.130;8.710;2022-10-31T18:01:07;12.95;;;11.27;;
40953;SDS011;26686;50.130;8.710;2022-10-31T18:06:11;13.75;;;9.85;;
40953;SDS011;26686;50.130;8.710;2022-10-31T18:11:18;12.77;;;10.30;;
40953;SDS011;26686;50.130;8.710;2022-10-31T18:16:21;13.88;;;11.25;;
40953;SDS011;26686;50.130;8.710;2022-10-31T18:21:23;14.15;;;10.40;;
40953;SDS011;26686;50.130;8.710;2022-10-31T18:26:26;12.88;;;10.25;;
40953;SDS011;26686;50.130;8.710;2022-10-31T18:31:28;13.07;;;10.18;;
40953;SDS011;26686;50.130;8.710;2022-10-31T18:36:29;15.52;;;11.43;;
40953;SDS011;26686;50.130;8.710;2022-10-31T18:41:30;14.82;;;11.93;;
40953;SDS011;26686;50.130;8.710;2022-10-31T18:46:32;13.68;;;12.27;;
40953;SDS011;26686;50.130;8.710;2022-10-31T18:51:34;14.43;;;11.88;;
40953;SDS011;26686;50.130;8.710;2022-10-31T18:56:35;15.75;;;12.95;;
40953;SDS011;26686;50.130;8.710;2022-10-31T19:01:36;14.18;;;10.88;;
40953;SDS011;26686;50.130;8.710;2022-10-31T19:06:38;13.98;;;10.43;;
40953;SDS011;26686;50.130;8.710;2022-10-31T19:11:39;14.25;;;10.80;;
40953;SDS011;26686;50.130;8.710;2022-10-31T19:16:40;13.18;;;10.63;;
40953;SDS011;26686;50.130;8.710;2022-10-31T19:21:42;13.23;;;11.82;;
40953;SDS011;26686;50.130;8.710;2022-10-31T19:26:43;13.93;;;12.07;;
40953;SDS011;26686;50.130;8.710;2022-10-31T19:31:44;12.63;;;11.43;;
40953;SDS011;26686;50.130;8.710;2022-10-31T19:36:46;18.50;;;12.98;;
40953;SDS011;26686;50.130;8.710;2022-10-31T19:41:47;16.25;;;12.75;;
40953;SDS011;26686;50.130;8.710;2022-10-31T19:46:49;15.10;;;11.98;;
40953;SDS011;26686;50.130;8.710;2022-10-31T19:51:54;14.23;;;12.35;;
40953;SDS011;26686;50.130;8.710;2022-10-31T19:56:55;13.57;;;12.00;;
40953;SDS011;26686;50.130;8.710;2022-10-31T20:01:57;14.47;;;11.63;;
40953;SDS011;26686;50.130;8.710;2022-10-31T20:06:58;15.77;;;12.32;;
40953;SDS011;26686;50.130;8.710;2022-10-31T20:11:59;15.43;;;12.80;;
40953;SDS011;26686;50.130;8.710;2022-10-31T20:17:01;16.63;;;12.80;;
40953;SDS011;26686;50.130;8.710;2022-10-31T20:22:02;14.35;;;12.77;;
40953;SDS011;26686;50.130;8.710;2022-10-31T20:27:03;17.02;;;14.93;;
40953;SDS011;26686;50.130;8.710;2022-10-31T20:32:05;16.13;;;14.00;;
40953;SDS011;26686;50.130;8.710;2022-10-31T20:37:07;17.90;;;13.27;;
40953;SDS011;26686;50.130;8.710;2022-10-31T20:42:08;15.85;;;14.20;;
40953;SDS011;26686;50.130;8.710;2022-10-31T20:47:10;16.70;;;13.05;;
40953;SDS011;26686;50.130;8.710;2022-10-31T20:52:11;21.27;;;17.92;;
40953;SDS011;26686;50.130;8.710;2022-10-31T20:57:12;23.95;;;21.35;;
40953;SDS011;26686;50.130;8.710;2022-10-31T21:02:13;17.77;;;13.95;;
40953;SDS011;26686;50.130;8.710;2022-10-31T21:07:15;14.35;;;11.23;;
40953;SDS011;26686;50.130;8.710;2022-10-31T21:12:17;14.93;;;11.85;;
40953;SDS011;26686;50.130;8.710;2022-10-31T21:17:18;15.30;;;10.57;;
40953;SDS011;26686;50.130;8.710;2022-10-31T21:22:19;13.70;;;11.18;;
40953;SDS011;26686;50.130;8.710;2022-10-31T21:27:21;12.55;;;10.60;;
40953;SDS011;26686;50.130;8.710;2022-10-31T21:32:22;13.35;;;10.15;;
40953;SDS011;26686;50.130;8.710;2022-10-31T21:37:23;19.17;;;12.63;;
40953;SDS011;26686;50.130;8.710;2022-10-31T21:42:24;16.83;;;12.35;;
40953;SDS011;26686;50.130;8.710;2022-10-31T21:47:26;15.93;;;11.80;;
40953;SDS011;26686;50.130;8.710;2022-10-31T21:52:27;13.38;;;11.10;;
40953;SDS011;26686;50.130;8.710;2022-10-31T21:57:28;14.65;;;12.98;;
40953;SDS011;26686;50.130;8.710;2022-10-31T22:02:30;13.68;;;12.02;;
40953;SDS011;26686;50.130;8.710;2022-10-31T22:07:31;17.27;;;14.30;;
40953;SDS011;26686;50.130;8.710;2022-10-31T22:12:32;21.85;;;19.60;;
40953;SDS011;26686;50.130;8.710;2022-10-31T22:17:34;21.50;;;19.33;;
40953;SDS011;26686;50.130;8.710;2022-10-31T22:22:35;18.50;;;15.90;;
40953;SDS011;26686;50.130;8.710;2022-10-31T22:27:36;22.35;;;20.10;;
40953;SDS011;26686;50.130;8.710;2022-10-31T22:32:38;30.10;;;25.63;;
40953;SDS011;26686;50.130;8.710;2022-10-31T22:37:39;24.33;;;20.27;;
40953;SDS011;26686;50.130;8.710;2022-10-31T22:42:41;21.80;;;19.58;;
40953;SDS011;26686;50.130;8.710;2022-10-31T22:47:42;24.90;;;22.38;;
40953;SDS011;26686;50.130;8.710;2022-10-31T22:52:43;33.67;;;30.48;;
40953;SDS011;26686;50.130;8.710;2022-10-31T22:57:44;36.05;;;32.65;;
40953;SDS011;26686;50.130;8.710;2022-10-31T23:02:46;38.00;;;34.25;;
40953;SDS011;26686;50.130;8.710;2022-10-31T23:07:47;34.70;;;31.38;;
40953;SDS011;26686;50.130;8.710;2022-10-31T23:12:49;24.58;;;22.08;;
40953;SDS011;26686;50.130;8.710;2022-10-31T23:18:09;21.85;;;19.58;;
40953;SDS011;26686;50.130;8.710;2022-10-31T23:23:32;17.10;;;15.55;;
40953;SDS011;26686;50.130;8.710;2022-10-31T23:28:34;17.20;;;15.03;;
40953;SDS011;26686;50.130;8.710;2022-10-31T23:33:36;17.77;;;14.52;;
40953;SDS011;26686;50.130;8.710;2022-10-31T23:38:37;17.23;;;15.43;;
40953;SDS011;26686;50.130;8.710;2022-10-31T23:43:38;16.20;;;14.65;;
40953;SDS011;26686;50.130;8.710;2022-10-31T23:48:39;17.02;;;15.20;;
40953;SDS011;26686;50.130;8.710;2022-10-31T23:53:44;14.63;;;13.05;;
40953;SDS011;26686;50.130;8.710;2022-10-31T23:58:45;16.52;;;14.15;;
